Mailinglist Archive: opensuse-multimedia-de (151 mails)

< Previous Next >
Re: [suse-multimedia] Suse10: Problem mit Videowiedergabe (2. Versuch)
  • From: Hans Muecke <suse-multimedia-ml@xxxxxxxxxxxxxxx>
  • Date: Tue, 18 Oct 2005 15:10:15 -0500
  • Message-id: <200510181510.15333.suse-multimedia-ml@xxxxxxxxxxxxxxx>
On Tuesday 18 October 2005 14:09, Manfred Tremmel wrote:

Hi Manfred,

Sorry für die prvate Mail ...

> > xshm habe ich kurz heute Morgen versucht - gleicher Effekt. Ich werde
> > mal die Anderen heute oder morgen versuchen.
>
> Du hast den Player nach der Umstellung neu gestartet, bzw. per
> Commandline Option das Plugin mitgegeben?

Und es tut mit MPlayer ... ich muß das jetzt nicht verstehen???

Wir mailen uns ... Hans
--
2005/10/18 19:20
EDDS 181920Z 24002KT CAVOK 05/02 Q1020 NOSIG

< Previous Next >